Terminal Aerodrome Forecast
Issued by NWS

Home | Current Version | Previous Version | Text Only | Print | Product List | Glossary On
Versions: 1 2 3 4 5 6 7 8 9 10 11 12 13 14
000
FTUS42 KFFC 040521
TAFRYY
TAF
KRYY 040521Z 0406/0506 06004KT 6SM -RADZ OVC040
     FM040900 08008KT 5SM -RADZ OVC025
     FM041200 09010G15KT 5SM -RA BR BKN008 OVC025
     FM041500 09012G18KT 5SM -RA BR BKN006 OVC012
     FM050000 06007KT 3SM -RA BR OVC005
      AMD NOT SKED TIL 041200=

USA.gov is the U.S. government's official web portal to all federal, state and local government web resources and services.